Time;durP1;ratioP1;P1;durP2;ratioP2;P2;SDS_P1;SDS_P2;PMS_P1;PMS_P2;Temp;Humidity;BMP_temperature;BMP_pressure;BME280_temperature;BME280_humidity;BME280_pressure;Samples;Min_cycle;Max_cycle;Signal;HPM_P1;HPM_P2
2022/09/30 13:48:29;;;;;;;6.20;4.22;;;;;;;17.55;80.08;97688.60;1849980;77;20995;-58
2022/09/30 13:50:58;;;;;;;6.12;4.53;;;;;;;17.52;80.25;97689.30;1851053;76;21208;-58
2022/09/30 13:53:38;;;;;;;6.92;4.85;;;;;;;17.48;80.25;97693.22;1847073;77;20998;-58
2022/09/30 13:56:16;;;;;;;8.05;4.75;;;;;;;17.47;80.36;97697.07;1837175;77;20877;-59
2022/09/30 13:59:08;;;;;;;6.25;5.55;;;;;;;17.43;80.49;97693.45;1827972;77;20887;-59
2022/09/30 14:01:59;;;;;;;10.80;5.30;;;;;;;17.38;80.64;97688.27;1831714;77;21358;-59
2022/09/30 14:04:46;;;;;;;5.67;4.35;;;;;;;17.34;81.25;97694.14;1824636;77;21189;-57
2022/09/30 14:08:03;;;;;;;9.18;4.60;;;;;;;17.32;81.45;97699.67;1848323;76;21008;-57
2022/09/30 14:11:03;;;;;;;8.10;5.17;;;;;;;17.29;81.71;97701.73;1814338;76;20904;-57
2022/09/30 14:14:11;;;;;;;5.95;5.08;;;;;;;17.27;82.38;97696.64;1814667;77;20968;-59
2022/09/30 14:16:54;;;;;;;7.67;5.33;;;;;;;17.23;82.54;97699.01;1819443;76;21025;-58
2022/09/30 14:19:36;;;;;;;6.05;5.45;;;;;;;17.18;82.94;97705.45;1801369;78;21300;-56
2022/09/30 14:22:05;;;;;;;6.90;5.35;;;;;;;17.13;83.28;97704.31;1802304;79;20847;-57
2022/09/30 14:24:33;;;;;;;9.80;6.55;;;;;;;17.05;83.86;97697.13;1804357;79;21011;-58
2022/09/30 14:27:45;;;;;;;9.18;6.92;;;;;;;17.00;84.50;97697.34;1772535;81;21023;-58
2022/09/30 14:30:25;;;;;;;9.03;6.97;;;;;;;16.95;85.08;97704.33;1774197;80;20930;-58
2022/09/30 14:32:57;;;;;;;10.15;7.20;;;;;;;16.87;85.72;97702.51;1767773;80;22072;-58
2022/09/30 14:35:32;;;;;;;10.18;7.35;;;;;;;16.82;86.20;97701.38;1761172;80;20887;-57
2022/09/30 14:38:07;;;;;;;8.25;6.33;;;;;;;16.78;86.63;97705.89;1761320;80;21079;-57
2022/09/30 14:40:39;;;;;;;12.70;7.15;;;;;;;16.74;87.14;97706.34;1763046;80;21040;-57
2022/09/30 14:43:07;;;;;;;7.95;6.45;;;;;;;16.70;87.69;97703.50;1742874;81;20863;-58
2022/09/30 14:45:37;;;;;;;10.60;6.78;;;;;;;16.69;88.10;97705.20;1759348;80;21182;-58
2022/09/30 14:48:08;;;;;;;7.65;6.42;;;;;;;16.66;88.66;97706.66;1763167;80;20950;-57
2022/09/30 14:50:42;;;;;;;6.37;5.78;;;;;;;16.64;89.08;97711.62;1759646;80;20990;-58
2022/09/30 14:53:43;;;;;;;7.55;4.92;;;;;;;16.61;89.33;97712.84;1759638;80;21055;-58
2022/09/30 14:56:20;;;;;;;7.35;5.92;;;;;;;16.55;90.10;97720.40;1753942;80;21113;-58
2022/09/30 14:58:51;;;;;;;6.55;5.90;;;;;;;16.52;90.76;97717.56;1760992;80;21181;-58
2022/09/30 15:01:18;;;;;;;8.15;6.28;;;;;;;16.49;91.35;97713.58;1763900;81;21037;-58
2022/09/30 15:03:56;;;;;;;9.43;6.85;;;;;;;16.48;91.86;97717.42;1765179;81;21152;-58
2022/09/30 15:06:30;;;;;;;10.23;6.37;;;;;;;16.46;92.28;97716.17;1757446;80;20925;-58
2022/09/30 15:09:32;;;;;;;7.87;6.17;;;;;;;16.43;92.70;97714.93;1761803;80;20992;-58
2022/09/30 15:12:21;;;;;;;9.23;7.50;;;;;;;16.41;93.12;97713.13;1758041;80;21226;-57
2022/09/30 15:14:55;;;;;;;7.70;6.85;;;;;;;16.39;93.74;97717.50;1761141;80;21008;-58
2022/09/30 15:17:29;;;;;;;8.23;7.42;;;;;;;16.39;94.10;97725.61;1758298;80;21032;-58
2022/09/30 15:19:57;;;;;;;10.32;6.50;;;;;;;16.35;94.54;97727.41;1758501;80;21448;-58
2022/09/30 15:22:26;;;;;;;7.50;6.78;;;;;;;16.35;95.08;97730.66;1761630;81;20867;-58
2022/09/30 15:24:52;;;;;;;9.98;6.62;;;;;;;16.32;95.45;97719.95;1760181;80;21034;-58
2022/09/30 15:27:29;;;;;;;8.55;6.35;;;;;;;16.26;95.86;97724.00;1761127;80;20950;-59
2022/09/30 15:30:03;;;;;;;8.33;6.47;;;;;;;16.23;96.34;97721.95;1758574;80;21023;-57
2022/09/30 15:32:33;;;;;;;8.78;7.58;;;;;;;16.22;96.80;97724.45;1758015;80;20953;-58
2022/09/30 15:35:16;;;;;;;10.63;7.33;;;;;;;16.20;97.18;97721.27;1761319;80;20942;-57
2022/09/30 15:37:43;;;;;;;7.72;6.87;;;;;;;16.19;97.35;97720.26;1759869;81;21244;-57
2022/09/30 15:43:02;;;;;;;10.20;8.50;;;;;;;16.18;97.86;97716.76;1755476;80;20982;-57
2022/09/30 15:45:34;;;;;;;11.65;8.33;;;;;;;16.16;98.22;97720.36;1755379;80;21060;-57
2022/09/30 15:48:06;;;;;;;10.32;8.05;;;;;;;16.14;98.45;97723.95;1758116;80;21104;-57
2022/09/30 15:50:48;;;;;;;9.90;8.83;;;;;;;16.10;98.63;97722.25;1760496;81;21126;-57
2022/09/30 15:53:18;;;;;;;14.10;8.05;;;;;;;16.05;99.01;97720.55;1759721;80;20988;-57
2022/09/30 15:55:47;;;;;;;10.48;9.45;;;;;;;16.01;99.44;97728.30;1758619;80;20973;-57
2022/09/30 15:58:36;;;;;;;10.72;9.63;;;;;;;15.96;99.79;97732.55;1761185;80;20930;-57
2022/09/30 16:01:22;;;;;;;10.45;9.35;;;;;;;15.92;100.00;97737.80;1762558;80;20984;-57
2022/09/30 16:04:00;;;;;;;13.70;9.67;;;;;;;15.90;100.00;97742.75;1757512;80;21272;-58
2022/09/30 16:06:33;;;;;;;12.28;9.10;;;;;;;15.86;100.00;97752.64;1764344;81;20969;-58
2022/09/30 16:09:07;;;;;;;9.55;8.10;;;;;;;15.81;100.00;97751.48;1761181;80;21108;-58
2022/09/30 16:11:40;;;;;;;9.75;8.53;;;;;;;15.81;100.00;97750.13;1761374;80;21504;-58
2022/09/30 16:14:14;;;;;;;11.00;8.28;;;;;;;15.80;100.00;97747.22;1759781;80;21496;-59
2022/09/30 16:16:41;;;;;;;10.60;8.08;;;;;;;15.83;100.00;97751.17;1748492;80;21770;-59
2022/09/30 16:19:13;;;;;;;8.95;8.05;;;;;;;15.84;100.00;97748.69;1753408;80;20858;-59
2022/09/30 16:21:49;;;;;;;9.05;7.42;;;;;;;15.82;100.00;97740.13;1761528;80;21476;-56
2022/09/30 16:24:31;;;;;;;9.73;7.70;;;;;;;15.80;100.00;97739.13;1755788;80;21021;-57
2022/09/30 16:27:00;;;;;;;9.40;8.40;;;;;;;15.79;100.00;97740.23;1753910;80;21037;-58
2022/09/30 16:29:27;;;;;;;10.43;8.65;;;;;;;15.78;100.00;97741.92;1761055;80;21812;-58
2022/09/30 16:31:55;;;;;;;11.40;9.13;;;;;;;15.74;100.00;97747.97;1755566;80;21520;-58
2022/09/30 16:34:25;;;;;;;13.05;8.68;;;;;;;15.71;100.00;97751.31;1761331;80;20905;-58
2022/09/30 16:36:53;;;;;;;9.80;8.10;;;;;;;15.67;100.00;97752.30;1760130;80;20911;-58
2022/09/30 16:39:20;;;;;;;9.08;8.10;;;;;;;15.59;100.00;97742.38;1762491;80;20922;-58
2022/09/30 16:41:48;;;;;;;11.38;9.10;;;;;;;15.55;100.00;97738.73;1760802;80;21067;-58
2022/09/30 16:44:16;;;;;;;10.50;9.33;;;;;;;15.51;100.00;97740.52;1763672;80;21299;-58
2022/09/30 16:46:43;;;;;;;11.68;10.48;;;;;;;15.49;100.00;97731.95;1762693;81;21425;-58
2022/09/30 16:49:18;;;;;;;11.80;10.60;;;;;;;15.49;100.00;97737.36;1759410;80;21064;-58
2022/09/30 16:51:44;;;;;;;11.70;9.78;;;;;;;15.47;100.00;97730.14;1769249;80;20978;-57
2022/09/30 16:54:11;;;;;;;9.93;8.73;;;;;;;15.44;100.00;97731.59;1761423;80;21206;-58
2022/09/30 16:56:38;;;;;;;13.53;10.08;;;;;;;15.40;100.00;97732.55;1761769;80;20886;-57
2022/09/30 16:59:15;;;;;;;14.98;13.22;;;;;;;15.36;100.00;97724.84;1762007;80;20902;-57
2022/09/30 17:01:42;;;;;;;44.35;30.48;;;;;;;15.32;100.00;97730.67;1756957;80;20973;-58
2022/09/30 17:04:09;;;;;;;19.00;15.00;;;;;;;15.27;100.00;97730.86;1758430;80;20969;-59
2022/09/30 17:06:36;;;;;;;21.85;15.80;;;;;;;15.23;100.00;97728.59;1760385;80;21245;-59
2022/09/30 17:09:04;;;;;;;13.30;10.35;;;;;;;15.17;100.00;97725.86;1761011;80;20909;-59
2022/09/30 17:11:32;;;;;;;14.03;12.40;;;;;;;15.15;100.00;97726.72;1761360;80;20921;-58
2022/09/30 17:13:59;;;;;;;15.32;11.95;;;;;;;15.13;100.00;97731.66;1742064;81;20938;-58
2022/09/30 17:16:26;;;;;;;15.43;11.95;;;;;;;15.12;100.00;97727.39;1756126;80;21373;-57
2022/09/30 17:18:53;;;;;;;15.08;12.15;;;;;;;15.07;100.00;97727.02;1755416;80;21006;-57
2022/09/30 17:21:23;;;;;;;12.75;10.15;;;;;;;15.04;100.00;97724.97;1759693;80;20981;-58
2022/09/30 17:23:49;;;;;;;16.15;9.98;;;;;;;15.03;100.00;97733.61;1765845;80;21061;-57
2022/09/30 17:26:16;;;;;;;13.60;10.60;;;;;;;15.03;100.00;97730.91;1761662;80;21008;-58
2022/09/30 17:28:43;;;;;;;13.62;11.38;;;;;;;15.03;100.00;97726.86;1759712;80;21543;-59
2022/09/30 17:31:10;;;;;;;13.28;10.82;;;;;;;15.03;100.00;97728.21;1760340;80;22037;-57
2022/09/30 17:33:38;;;;;;;17.23;10.63;;;;;;;15.01;100.00;97733.14;1760024;80;20887;-58
2022/09/30 17:36:09;;;;;;;14.03;9.30;;;;;;;15.00;100.00;97742.34;1756674;80;20906;-57
2022/09/30 17:38:35;;;;;;;13.60;8.50;;;;;;;14.97;100.00;97738.97;1761180;80;20929;-57
2022/09/30 17:43:49;;;;;;;10.40;9.30;;;;;;;14.91;100.00;97732.15;1755697;80;21154;-58
2022/09/30 17:46:21;;;;;;;12.28;9.50;;;;;;;14.91;100.00;97734.84;1758645;80;20871;-57
2022/09/30 17:48:47;;;;;;;11.78;9.60;;;;;;;14.91;100.00;97737.55;1758653;80;21151;-57
2022/09/30 17:51:17;;;;;;;10.38;8.10;;;;;;;14.90;100.00;97737.33;1758333;80;20977;-58
2022/09/30 17:53:44;;;;;;;10.68;8.90;;;;;;;14.89;100.00;97741.12;1757945;80;20926;-58
2022/09/30 17:56:18;;;;;;;12.13;10.75;;;;;;;14.89;100.00;97743.82;1764457;81;21112;-58
2022/09/30 17:58:47;;;;;;;11.63;9.83;;;;;;;14.88;100.00;97744.95;1759510;80;21017;-58
2022/09/30 18:01:16;;;;;;;10.70;9.60;;;;;;;14.89;100.00;97747.87;1765183;81;20926;-58
2022/09/30 18:03:44;;;;;;;10.05;8.95;;;;;;;14.87;100.00;97752.80;1755517;80;21535;-58
2022/09/30 18:06:13;;;;;;;14.03;9.48;;;;;;;14.85;100.00;97753.69;1759772;80;20898;-58
2022/09/30 18:08:42;;;;;;;9.53;8.45;;;;;;;14.85;100.00;97755.58;1764956;81;21290;-57
2022/09/30 18:11:11;;;;;;;10.15;8.48;;;;;;;14.86;100.00;97760.64;1763320;81;20991;-58
2022/09/30 18:13:38;;;;;;;11.08;8.58;;;;;;;14.88;100.00;97759.78;1761882;80;21089;-58
2022/09/30 18:16:05;;;;;;;10.05;8.85;;;;;;;14.91;100.00;97767.76;1764599;80;20993;-58
2022/09/30 18:18:36;;;;;;;11.53;8.48;;;;;;;14.91;100.00;97765.86;1755740;80;21416;-58
2022/09/30 18:21:03;;;;;;;8.43;7.53;;;;;;;14.90;100.00;97761.59;1759532;80;21228;-58
2022/09/30 18:23:29;;;;;;;10.03;8.00;;;;;;;14.90;100.00;97759.45;1758540;80;21029;-57
2022/09/30 18:25:56;;;;;;;10.38;8.98;;;;;;;14.91;100.00;97763.16;1758626;80;21629;-57
2022/09/30 18:28:23;;;;;;;10.78;9.00;;;;;;;14.92;100.00;97766.11;1762638;81;20934;-58
2022/09/30 18:30:50;;;;;;;10.13;8.85;;;;;;;14.95;100.00;97770.86;1760464;80;20922;-59
2022/09/30 18:33:20;;;;;;;14.18;10.63;;;;;;;14.97;100.00;97774.02;1761475;80;21233;-58
2022/09/30 18:35:46;;;;;;;18.48;14.87;;;;;;;14.95;100.00;97772.20;1761137;80;20982;-58
2022/09/30 18:38:13;;;;;;;24.60;15.00;;;;;;;14.92;100.00;97774.20;1756078;80;20890;-58
2022/09/30 18:40:42;;;;;;;19.40;14.33;;;;;;;14.91;100.00;97771.25;1759598;80;21069;-59
2022/09/30 18:43:12;;;;;;;18.92;13.80;;;;;;;14.92;100.00;97767.45;1760074;80;21005;-57
2022/09/30 18:45:39;;;;;;;15.05;12.23;;;;;;;14.95;100.00;97774.91;1761468;80;21368;-59
2022/09/30 18:48:08;;;;;;;16.07;11.53;;;;;;;14.95;100.00;97774.91;1758500;80;21032;-58
2022/09/30 18:50:36;;;;;;;12.37;10.40;;;;;;;14.93;100.00;97770.37;1761599;80;20950;-58
2022/09/30 18:53:07;;;;;;;17.30;10.75;;;;;;;14.94;100.00;97775.21;1764967;81;20914;-58
2022/09/30 18:55:34;;;;;;;14.93;10.43;;;;;;;14.94;100.00;97777.36;1761970;80;20996;-57
2022/09/30 18:58:01;;;;;;;14.00;10.65;;;;;;;14.94;100.00;97782.75;1755569;80;21208;-58
2022/09/30 19:00:29;;;;;;;11.65;10.00;;;;;;;14.95;100.00;97784.34;1757784;80;20977;-58
2022/09/30 19:02:57;;;;;;;11.03;8.30;;;;;;;14.95;100.00;97792.44;1764905;81;21004;-58
2022/09/30 19:05:24;;;;;;;11.73;7.85;;;;;;;14.95;100.00;97785.70;1759728;80;20984;-59
2022/09/30 19:07:52;;;;;;;11.00;7.33;;;;;;;14.96;100.00;97785.91;1757070;80;21111;-57
2022/09/30 19:10:19;;;;;;;8.90;8.00;;;;;;;14.98;100.00;97779.62;1764210;81;21063;-57
2022/09/30 19:12:46;;;;;;;13.53;9.28;;;;;;;15.01;100.00;97780.89;1758054;80;20982;-57
2022/09/30 19:15:14;;;;;;;11.83;8.63;;;;;;;14.98;100.00;97779.62;1755498;80;21431;-57
2022/09/30 19:17:42;;;;;;;11.05;8.15;;;;;;;14.98;100.00;97775.59;1762377;80;20938;-57
2022/09/30 19:20:10;;;;;;;7.95;7.10;;;;;;;14.95;100.00;97780.30;1765072;80;20918;-59
2022/09/30 19:22:36;;;;;;;10.60;7.60;;;;;;;14.94;100.00;97784.09;1763527;81;21230;-59
2022/09/30 19:25:05;;;;;;;8.55;6.37;;;;;;;14.94;100.00;97776.01;1758476;80;20894;-59
2022/09/30 19:27:32;;;;;;;6.95;5.47;;;;;;;14.95;100.00;97782.20;1755503;80;20977;-59
2022/09/30 19:29:59;;;;;;;7.90;5.45;;;;;;;14.96;100.00;97779.17;1756944;80;20953;-59
2022/09/30 19:32:28;;;;;;;6.67;5.10;;;;;;;14.96;100.00;97788.61;1755495;80;21543;-59
2022/09/30 19:34:59;;;;;;;5.83;4.30;;;;;;;14.95;100.00;97783.00;1735514;81;21232;-58
2022/09/30 19:37:25;;;;;;;7.25;4.83;;;;;;;14.95;100.00;97780.30;1762412;80;21410;-59
2022/09/30 19:39:52;;;;;;;7.08;4.03;;;;;;;14.94;100.00;97787.34;1758450;80;21420;-59
2022/09/30 19:42:20;;;;;;;5.75;4.28;;;;;;;14.95;100.00;97783.00;1761549;80;20946;-59
2022/09/30 19:44:46;;;;;;;5.45;3.83;;;;;;;14.96;100.00;97776.47;1760114;80;20935;-59
2022/09/30 19:47:14;;;;;;;5.87;3.77;;;;;;;14.97;100.00;97788.86;1761409;80;21400;-59
2022/09/30 19:49:42;;;;;;;5.00;3.30;;;;;;;14.97;100.00;97780.77;1764470;81;21674;-58
2022/09/30 19:52:09;;;;;;;7.20;4.05;;;;;;;14.98;100.00;97779.62;1765095;81;21022;-58
2022/09/30 19:54:36;;;;;;;8.30;4.33;;;;;;;15.00;100.00;97785.48;1759755;80;20902;-59
2022/09/30 19:57:03;;;;;;;5.97;4.50;;;;;;;14.97;100.00;97790.75;1761292;80;21044;-58
2022/09/30 19:59:30;;;;;;;6.83;4.28;;;;;;;14.92;100.00;97789.03;1760082;80;22025;-59
2022/09/30 20:01:57;;;;;;;7.03;3.92;;;;;;;14.90;100.00;97785.07;1757247;80;20890;-58
2022/09/30 20:04:24;;;;;;;5.28;4.00;;;;;;;14.88;100.00;97788.09;1762877;80;20890;-58
2022/09/30 20:06:52;;;;;;;7.15;4.00;;;;;;;14.86;100.00;97790.30;1762342;80;21532;-57
2022/09/30 20:09:19;;;;;;;8.40;4.17;;;;;;;14.87;100.00;97786.50;1754716;80;21030;-58
2022/09/30 20:11:46;;;;;;;6.90;4.03;;;;;;;14.89;100.00;97794.26;1761151;80;21117;-58
2022/09/30 20:16:58;;;;;;;5.85;4.37;;;;;;;14.88;100.00;97786.75;1757211;80;24188;-57
2022/09/30 20:19:25;;;;;;;7.53;5.12;;;;;;;14.89;100.00;97785.62;1760140;80;21001;-57
2022/09/30 20:21:52;;;;;;;8.68;6.65;;;;;;;14.87;100.00;97789.20;1755503;80;20949;-58
2022/09/30 20:24:19;;;;;;;8.98;5.60;;;;;;;14.83;100.00;97797.70;1759456;80;21197;-58
2022/09/30 20:26:49;;;;;;;10.00;5.87;;;;;;;14.82;100.00;97793.96;1759648;80;20997;-58
2022/09/30 20:29:18;;;;;;;7.87;5.33;;;;;;;14.80;100.00;97791.60;1761348;80;20985;-58
2022/09/30 20:31:44;;;;;;;10.38;5.28;;;;;;;14.79;100.00;97798.67;1761251;80;20914;-57
2022/09/30 20:34:13;;;;;;;12.07;3.80;;;;;;;14.78;100.00;97796.53;1762441;80;20989;-57
2022/09/30 20:36:39;;;;;;;5.53;2.83;;;;;;;14.78;100.00;97803.81;1755357;80;21158;-57
2022/09/30 20:39:06;;;;;;;5.40;2.60;;;;;;;14.76;100.00;97808.20;1761097;80;20898;-57
2022/09/30 20:41:35;;;;;;;3.40;2.65;;;;;;;14.76;100.00;97812.23;1759107;80;20897;-57
2022/09/30 20:44:14;;;;;;;4.30;2.15;;;;;;;14.78;100.00;97809.21;1763338;81;20982;-57
2022/09/30 20:46:42;;;;;;;4.15;2.00;;;;;;;14.79;100.00;97803.48;1761348;80;21036;-58
2022/09/30 20:49:09;;;;;;;5.58;2.10;;;;;;;14.80;100.00;97805.63;1762074;81;21405;-58
2022/09/30 20:51:36;;;;;;;4.80;2.05;;;;;;;14.80;100.00;97800.23;1758921;80;20905;-58
2022/09/30 20:54:03;;;;;;;6.33;2.75;;;;;;;14.80;100.00;97801.04;1760984;80;21413;-58
2022/09/30 20:56:31;;;;;;;3.60;2.50;;;;;;;14.79;100.00;97802.14;1762805;80;20942;-58
2022/09/30 20:58:58;;;;;;;5.37;2.58;;;;;;;14.76;100.00;97804.15;1761119;81;21047;-58
2022/09/30 21:01:24;;;;;;;4.37;2.47;;;;;;;14.72;100.00;97807.23;1758320;80;21230;-58
2022/09/30 21:03:52;;;;;;;6.67;2.67;;;;;;;14.64;100.00;97809.41;1759858;80;21512;-58
2022/09/30 21:06:24;;;;;;;6.00;2.87;;;;;;;14.58;100.00;97811.25;1755563;80;21008;-58
2022/09/30 21:08:51;;;;;;;7.40;3.20;;;;;;;14.54;100.00;97817.02;1757122;80;21432;-58
2022/09/30 21:11:18;;;;;;;9.60;2.92;;;;;;;14.53;100.00;97818.92;1760826;80;20979;-58
2022/09/30 21:13:49;;;;;;;8.33;2.80;;;;;;;14.52;100.00;97826.78;1757934;80;21120;-58
2022/09/30 21:16:23;;;;;;;8.03;3.00;;;;;;;14.48;100.00;97824.50;1758678;80;20937;-58
2022/09/30 21:18:51;;;;;;;4.30;2.90;;;;;;;14.45;100.00;97830.52;1757210;80;21554;-59
2022/09/30 21:21:20;;;;;;;6.45;2.87;;;;;;;14.42;100.00;97836.53;1755761;80;20957;-58
2022/09/30 21:23:47;;;;;;;4.92;2.60;;;;;;;14.39;100.00;97831.77;1760932;80;20897;-59
2022/09/30 21:26:15;;;;;;;5.85;2.87;;;;;;;14.37;100.00;97830.75;1763918;81;21113;-58
2022/09/30 21:28:45;;;;;;;5.72;2.75;;;;;;;14.36;100.00;97830.53;1758151;80;20885;-58
2022/09/30 21:31:21;;;;;;;5.60;2.55;;;;;;;14.37;100.00;97831.30;1761632;80;21445;-58
2022/09/30 21:33:57;;;;;;;6.47;2.67;;;;;;;14.33;100.00;97833.06;1759839;80;20961;-57
2022/09/30 21:36:24;;;;;;;5.78;2.70;;;;;;;14.32;100.00;97839.55;1757435;80;20893;-58
2022/09/30 21:38:52;;;;;;;5.62;3.02;;;;;;;14.31;100.00;97836.63;1762635;80;21122;-58
2022/09/30 21:41:19;;;;;;;7.58;3.10;;;;;;;14.26;100.00;97832.71;1763049;80;20978;-58
2022/09/30 21:43:46;;;;;;;6.15;2.65;;;;;;;14.26;100.00;97835.41;1764576;81;21049;-58
2022/09/30 21:46:14;;;;;;;5.28;2.80;;;;;;;14.25;100.00;97828.42;1760316;80;21469;-58
2022/09/30 21:48:41;;;;;;;6.60;2.83;;;;;;;14.25;100.00;97835.16;1761445;80;21016;-58
2022/09/30 21:51:08;;;;;;;5.80;2.47;;;;;;;14.26;100.00;97834.06;1762179;80;21010;-58
2022/09/30 21:53:37;;;;;;;8.13;2.62;;;;;;;14.24;100.00;97841.67;1760278;80;20874;-58
2022/09/30 21:56:08;;;;;;;5.47;2.50;;;;;;;14.24;100.00;97840.32;1757971;80;20903;-58
2022/09/30 21:58:35;;;;;;;6.85;2.50;;;;;;;14.23;100.00;97832.79;1764241;81;21006;-58
2022/09/30 22:01:04;;;;;;;3.10;2.20;;;;;;;14.23;100.00;97837.37;1759955;80;21055;-58
2022/09/30 22:03:36;;;;;;;5.90;2.20;;;;;;;14.24;100.00;97834.39;1760217;80;21602;-58
2022/09/30 22:06:01;;;;;;;5.65;2.52;;;;;;;14.29;100.00;97840.17;1763006;81;21430;-58
2022/09/30 22:08:34;;;;;;;4.95;2.72;;;;;;;14.34;100.00;97844.08;1761693;81;20978;-58
2022/09/30 22:10:58;;;;;;;7.17;2.55;;;;;;;14.38;100.00;97851.77;1805406;78;21122;-58
2022/09/30 22:13:25;;;;;;;6.05;2.10;;;;;;;14.40;100.00;97852.23;1805924;77;21026;-58
2022/09/30 22:15:51;;;;;;;4.22;2.00;;;;;;;14.42;100.00;97847.31;1813756;79;21108;-58
2022/09/30 22:18:18;;;;;;;6.00;2.65;;;;;;;14.45;100.00;97841.84;1805077;79;21022;-58
2022/09/30 22:20:46;;;;;;;7.60;2.62;;;;;;;14.44;100.00;97847.78;1798539;79;20927;-58
2022/09/30 22:23:13;;;;;;;9.13;2.60;;;;;;;14.44;100.00;97855.87;1814490;79;20876;-58
2022/09/30 22:25:41;;;;;;;6.15;2.60;;;;;;;14.39;100.00;97856.02;1811240;79;20983;-58
2022/09/30 22:28:09;;;;;;;3.42;2.20;;;;;;;14.35;100.00;97853.73;1804075;79;21258;-57
2022/09/30 22:30:36;;;;;;;4.92;2.10;;;;;;;14.34;100.00;97855.62;1795972;79;20972;-58
2022/09/30 22:38:35;;;;;;;6.12;2.35;;;;;;;14.24;100.00;97865.91;1806237;79;21062;-57
2022/09/30 22:41:02;;;;;;;4.05;1.72;;;;;;;14.23;100.00;97868.36;1799414;79;21337;-57
2022/09/30 22:43:28;;;;;;;2.58;1.57;;;;;;;14.21;100.00;97868.69;1799277;79;21014;-57
2022/09/30 22:46:06;;;;;;;6.83;1.65;;;;;;;14.18;100.00;97865.81;1752146;79;20918;-58
2022/09/30 22:48:34;;;;;;;4.17;1.60;;;;;;;14.15;100.00;97866.47;1806505;79;20957;-57
2022/09/30 22:51:01;;;;;;;3.00;1.70;;;;;;;14.13;100.00;97874.84;1805711;79;20986;-57
2022/09/30 22:53:28;;;;;;;4.22;1.60;;;;;;;14.12;100.00;97871.12;1804114;79;21107;-57
2022/09/30 22:55:55;;;;;;;2.33;1.40;;;;;;;14.12;100.00;97883.25;1808542;79;21519;-57
2022/09/30 22:58:25;;;;;;;2.83;1.32;;;;;;;14.09;100.00;97882.52;1807902;79;21051;-57
2022/09/30 23:00:54;;;;;;;2.45;1.55;;;;;;;14.06;100.00;97875.86;1791742;79;20987;-57
2022/09/30 23:03:22;;;;;;;2.40;1.45;;;;;;;14.06;100.00;97878.56;1799552;79;21433;-57
2022/09/30 23:05:49;;;;;;;1.85;1.42;;;;;;;14.01;100.00;97877.39;1803372;79;22014;-59
2022/09/30 23:08:15;;;;;;;2.55;1.40;;;;;;;13.97;100.00;97872.38;1799797;79;20885;-57
2022/09/30 23:10:49;;;;;;;2.20;1.52;;;;;;;13.96;100.00;97880.23;1796095;79;20893;-56
2022/09/30 23:13:19;;;;;;;2.40;1.30;;;;;;;13.92;100.00;97878.48;1802219;79;28003;-57
2022/09/30 23:15:46;;;;;;;3.77;1.17;;;;;;;13.85;100.00;97879.50;1796268;79;21043;-58
2022/09/30 23:18:18;;;;;;;3.77;1.50;;;;;;;13.81;100.00;97887.39;1803643;79;21158;-57
2022/09/30 23:21:04;;;;;;;3.58;1.50;;;;;;;13.80;100.00;97893.09;1801416;79;20889;-58
2022/09/30 23:23:32;;;;;;;1.67;1.40;;;;;;;13.78;100.00;97889.93;1806509;78;20951;-57
2022/09/30 23:26:03;;;;;;;4.58;1.35;;;;;;;13.76;100.00;97883.49;1807949;79;20931;-57
2022/09/30 23:28:29;;;;;;;4.58;1.40;;;;;;;13.73;100.00;97886.80;1811122;78;20982;-57
2022/09/30 23:31:02;;;;;;;2.52;1.20;;;;;;;13.67;100.00;97875.41;1813884;78;21950;-58
2022/09/30 23:33:29;;;;;;;2.33;1.70;;;;;;;13.63;100.00;97867.73;1812782;79;20907;-57
2022/09/30 23:36:00;;;;;;;2.35;1.50;;;;;;;13.62;100.00;97870.16;1812526;78;20900;-57
2022/09/30 23:38:26;;;;;;;4.85;1.62;;;;;;;13.61;100.00;97870.48;1805790;78;21431;-57
2022/09/30 23:40:58;;;;;;;1.92;1.35;;;;;;;13.57;100.00;97873.00;1804379;79;20887;-57
2022/09/30 23:43:30;;;;;;;4.42;1.50;;;;;;;13.56;100.00;97870.08;1810342;79;21228;-58
2022/09/30 23:45:57;;;;;;;3.33;1.40;;;;;;;13.51;100.00;97874.80;1807575;78;20956;-57
2022/09/30 23:48:24;;;;;;;2.98;1.67;;;;;;;13.49;100.00;97885.88;1793747;79;20947;-57
2022/09/30 23:50:50;;;;;;;2.47;1.90;;;;;;;13.46;100.00;97886.50;1805302;79;20971;-57
2022/09/30 23:53:17;;;;;;;2.42;1.82;;;;;;;13.43;100.00;97880.38;1808264;79;21047;-57
2022/09/30 23:56:03;;;;;;;2.10;1.50;;;;;;;13.43;100.00;97889.80;1804557;79;21317;-57
2022/09/30 23:58:32;;;;;;;1.95;1.55;;;;;;;13.40;100.00;97891.76;1806742;79;20960;-57
